Time;durP1;ratioP1;P1;durP2;ratioP2;P2;SDS_P1;SDS_P2;PMS_P1;PMS_P2;Temp;Humidity;BMP_temperature;BMP_pressure;BME280_temperature;BME280_humidity;BME280_pressure;Samples;Min_cycle;Max_cycle;Signal;HPM_P1;HPM_P2
2021/03/16 00:01:01;;;;;;;28.95;5.45;;;5.20;99.90;;;;;;5134468;27;20035;-57
2021/03/16 00:03:26;;;;;;;28.10;4.95;;;5.20;99.90;;;;;;5136355;27;20074;-57
2021/03/16 00:05:52;;;;;;;25.67;4.55;;;5.20;99.90;;;;;;5136655;27;20111;-56
2021/03/16 00:08:18;;;;;;;29.95;4.68;;;5.30;99.90;;;;;;5136275;27;20027;-56
2021/03/16 00:10:44;;;;;;;35.50;4.90;;;5.20;99.90;;;;;;5136432;27;20059;-57
2021/03/16 00:13:10;;;;;;;35.70;5.68;;;5.30;99.90;;;;;;5136377;27;20035;-57
2021/03/16 00:15:36;;;;;;;21.08;4.38;;;5.40;99.90;;;;;;5136096;27;20039;-57
2021/03/16 00:18:03;;;;;;;28.15;4.72;;;5.30;99.90;;;;;;5136265;27;20039;-57
2021/03/16 00:20:30;;;;;;;28.92;4.35;;;5.40;99.90;;;;;;5136188;27;20404;-57
2021/03/16 00:22:56;;;;;;;27.60;4.28;;;5.40;99.90;;;;;;5136122;27;20429;-57
2021/03/16 00:25:22;;;;;;;31.75;6.13;;;5.40;99.90;;;;;;5136148;27;20070;-57
2021/03/16 00:27:48;;;;;;;31.00;5.45;;;5.40;99.90;;;;;;5136065;27;20046;-57
2021/03/16 00:30:14;;;;;;;47.40;5.85;;;5.50;99.90;;;;;;5136043;27;20057;-57
2021/03/16 00:32:40;;;;;;;29.48;4.82;;;5.50;99.90;;;;;;5135745;27;20548;-57
2021/03/16 00:35:06;;;;;;;26.90;4.43;;;5.50;99.90;;;;;;5136057;27;20134;-57
2021/03/16 00:37:33;;;;;;;33.00;4.60;;;5.60;99.90;;;;;;5135819;27;20068;-57
2021/03/16 00:39:58;;;;;;;25.60;5.25;;;5.60;99.90;;;;;;5135781;27;20039;-57
2021/03/16 00:42:24;;;;;;;25.23;3.83;;;5.60;99.90;;;;;;5135694;27;20050;-57
2021/03/16 00:44:50;;;;;;;39.97;3.78;;;5.60;99.90;;;;;;5135892;27;20492;-57
2021/03/16 00:47:15;;;;;;;29.92;4.47;;;5.60;99.90;;;;;;5136301;27;20071;-57
2021/03/16 00:49:41;;;;;;;22.80;4.80;;;5.60;99.90;;;;;;5135804;27;20053;-57
2021/03/16 00:52:07;;;;;;;34.83;4.97;;;5.60;99.90;;;;;;5135726;27;20573;-57
2021/03/16 00:54:32;;;;;;;24.98;4.13;;;5.60;99.90;;;;;;5135521;27;20039;-57
2021/03/16 00:56:58;;;;;;;24.67;4.20;;;5.70;99.90;;;;;;5135251;27;20380;-57
2021/03/16 00:59:24;;;;;;;33.65;4.63;;;5.70;99.90;;;;;;5135247;27;20055;-57
2021/03/16 01:01:49;;;;;;;28.75;3.95;;;5.70;99.90;;;;;;5135217;27;20039;-57
2021/03/16 01:04:15;;;;;;;21.70;3.83;;;5.80;99.90;;;;;;5135323;27;20461;-57
2021/03/16 01:06:41;;;;;;;29.83;4.00;;;5.70;99.90;;;;;;5135196;27;20047;-57
2021/03/16 01:09:07;;;;;;;22.83;3.40;;;5.70;99.90;;;;;;5135141;27;20043;-57
2021/03/16 01:11:33;;;;;;;25.38;3.65;;;5.70;99.90;;;;;;5134251;27;20046;-57
2021/03/16 01:13:59;;;;;;;23.33;4.07;;;5.70;99.90;;;;;;5134773;27;20047;-57
2021/03/16 01:16:24;;;;;;;28.40;4.28;;;5.80;99.90;;;;;;5134773;27;20135;-57
2021/03/16 01:18:50;;;;;;;27.77;4.60;;;5.70;99.90;;;;;;5134989;27;20046;-57
2021/03/16 01:21:16;;;;;;;22.90;3.70;;;5.80;99.90;;;;;;5135043;27;20042;-57
2021/03/16 01:23:42;;;;;;;21.17;3.92;;;5.80;99.90;;;;;;5135043;27;20381;-57
2021/03/16 01:26:08;;;;;;;22.60;3.55;;;5.80;99.90;;;;;;5135301;27;20476;-57
2021/03/16 01:28:34;;;;;;;23.90;3.67;;;5.80;99.90;;;;;;5135058;27;20053;-57
2021/03/16 01:31:01;;;;;;;20.23;4.15;;;5.80;99.90;;;;;;5135189;27;20470;-57
2021/03/16 01:33:27;;;;;;;30.17;4.85;;;5.80;99.90;;;;;;5134934;27;20780;-57
2021/03/16 01:35:57;;;;;;;30.25;4.90;;;5.80;99.90;;;;;;5134644;27;20452;-57
2021/03/16 01:38:23;;;;;;;30.80;5.25;;;5.80;99.90;;;;;;5134824;27;20089;-57
2021/03/16 01:40:50;;;;;;;32.08;4.55;;;5.80;99.90;;;;;;5135131;27;20157;-57
2021/03/16 01:43:25;;;;;;;36.97;5.05;;;5.80;99.90;;;;;;5134641;27;20567;-57
2021/03/16 01:45:51;;;;;;;28.92;4.25;;;5.70;99.90;;;;;;5134603;27;20116;-57
2021/03/16 01:48:21;;;;;;;36.22;4.57;;;5.80;99.90;;;;;;5134582;27;20480;-57
2021/03/16 01:50:47;;;;;;;23.60;3.67;;;5.80;99.90;;;;;;5134327;27;20544;-57
2021/03/16 01:53:14;;;;;;;24.25;4.32;;;5.70;99.90;;;;;;5134542;27;20134;-57
2021/03/16 01:55:42;;;;;;;23.13;3.95;;;5.70;99.90;;;;;;5134245;27;20129;-57
2021/03/16 01:58:07;;;;;;;24.65;3.70;;;5.70;99.90;;;;;;5134048;27;20503;-57
2021/03/16 02:00:40;;;;;;;25.25;3.83;;;5.70;99.90;;;;;;5134509;27;20036;-57
2021/03/16 02:03:10;;;;;;;25.60;4.50;;;5.80;99.90;;;;;;5134265;27;20114;-57
2021/03/16 02:05:37;;;;;;;18.48;3.00;;;5.80;99.90;;;;;;5134030;27;20043;-57
2021/03/16 02:08:19;;;;;;;24.88;3.42;;;5.80;99.90;;;;;;5134016;27;20465;-57
2021/03/16 02:11:10;;;;;;;27.30;4.70;;;5.80;99.90;;;;;;5134163;27;20050;-57
2021/03/16 02:13:42;;;;;;;26.73;3.88;;;5.80;99.90;;;;;;5133894;27;20122;-56
2021/03/16 02:16:15;;;;;;;26.70;3.65;;;5.80;99.90;;;;;;5133745;27;20085;-57
2021/03/16 02:18:51;;;;;;;28.25;3.42;;;5.80;99.90;;;;;;5133735;27;20066;-57
2021/03/16 02:21:21;;;;;;;23.23;3.38;;;5.80;99.90;;;;;;5133966;27;20047;-57
2021/03/16 02:24:48;;;;;;;23.65;3.75;;;5.70;99.90;;;;;;5133621;27;20043;-57
2021/03/16 02:27:23;;;;;;;19.35;3.03;;;5.80;99.90;;;;;;5089308;28;20504;-57
2021/03/16 02:29:53;;;;;;;21.23;4.65;;;5.80;99.90;;;;;;5090841;28;20116;-57
2021/03/16 02:32:23;;;;;;;18.83;3.22;;;5.70;99.90;;;;;;5090501;28;20486;-57
2021/03/16 02:34:53;;;;;;;23.30;4.15;;;5.80;99.90;;;;;;5090458;28;20489;-57
2021/03/16 02:37:20;;;;;;;20.40;2.95;;;5.80;99.90;;;;;;5090290;28;20043;-57
2021/03/16 02:39:47;;;;;;;23.38;3.10;;;5.80;99.90;;;;;;5090326;28;20055;-57
2021/03/16 02:42:15;;;;;;;19.92;2.97;;;5.70;99.90;;;;;;5090374;28;20153;-57
2021/03/16 02:44:42;;;;;;;30.50;4.07;;;5.70;99.90;;;;;;5090333;28;20046;-57
2021/03/16 02:47:08;;;;;;;27.85;3.53;;;5.70;99.90;;;;;;5090274;28;20055;-57
2021/03/16 02:49:37;;;;;;;26.50;3.78;;;5.70;99.90;;;;;;5090224;28;20481;-57
2021/03/16 02:52:04;;;;;;;17.98;2.70;;;5.70;99.90;;;;;;5090090;28;20040;-57
2021/03/16 02:54:31;;;;;;;18.23;3.10;;;5.70;99.90;;;;;;5090182;28;20441;-57
2021/03/16 02:56:58;;;;;;;21.20;4.35;;;5.70;99.90;;;;;;5089950;28;20070;-57
2021/03/16 02:59:25;;;;;;;20.33;3.92;;;5.70;99.90;;;;;;5089958;28;20259;-57
2021/03/16 03:01:51;;;;;;;20.65;3.05;;;5.70;99.90;;;;;;5131127;27;20118;-57
2021/03/16 03:04:20;;;;;;;25.70;3.33;;;5.60;99.90;;;;;;5133087;27;20039;-57
2021/03/16 03:06:47;;;;;;;22.95;3.22;;;5.60;99.90;;;;;;5132950;27;20054;-57
2021/03/16 03:09:14;;;;;;;21.17;3.28;;;5.60;99.90;;;;;;5133195;27;20047;-57
2021/03/16 03:11:40;;;;;;;19.98;2.80;;;5.60;99.90;;;;;;5133141;27;20385;-56
2021/03/16 03:14:07;;;;;;;28.63;3.50;;;5.60;99.90;;;;;;5132914;27;20134;-57
2021/03/16 03:16:33;;;;;;;19.38;3.53;;;5.60;99.90;;;;;;5132726;27;20492;-57
2021/03/16 03:18:59;;;;;;;21.20;3.80;;;5.60;99.90;;;;;;5132899;27;20453;-57
2021/03/16 03:21:31;;;;;;;22.50;3.85;;;5.60;99.90;;;;;;5132753;27;20043;-56
2021/03/16 03:24:12;;;;;;;30.25;3.95;;;5.60;99.90;;;;;;5132731;27;20042;-57
2021/03/16 03:27:14;;;;;;;20.55;3.30;;;5.60;99.90;;;;;;5132880;27;20051;-57
2021/03/16 03:29:41;;;;;;;17.48;2.67;;;5.60;99.90;;;;;;5130708;28;20072;-57
2021/03/16 03:32:09;;;;;;;25.27;2.95;;;5.60;99.90;;;;;;5133173;28;20062;-58
2021/03/16 03:34:35;;;;;;;24.00;3.25;;;5.60;99.90;;;;;;5133018;27;20090;-57
2021/03/16 03:37:02;;;;;;;22.85;4.25;;;5.60;99.90;;;;;;5136951;27;20103;-57
2021/03/16 03:39:31;;;;;;;21.20;3.95;;;5.60;99.90;;;;;;5137342;27;20142;-57
2021/03/16 03:41:58;;;;;;;27.85;3.60;;;5.60;99.90;;;;;;5136858;27;20046;-57
2021/03/16 03:44:25;;;;;;;22.58;3.03;;;5.70;99.90;;;;;;5137142;27;20361;-57
2021/03/16 03:46:52;;;;;;;28.73;3.22;;;5.70;99.90;;;;;;5136831;27;20532;-57
2021/03/16 03:49:19;;;;;;;18.05;3.63;;;5.70;99.90;;;;;;5136935;27;20070;-57
2021/03/16 03:51:50;;;;;;;23.20;3.67;;;5.70;99.90;;;;;;5136735;27;20088;-57
2021/03/16 03:54:18;;;;;;;27.23;4.75;;;5.70;99.90;;;;;;5136676;27;20084;-57
2021/03/16 03:56:44;;;;;;;43.00;4.35;;;5.70;99.90;;;;;;5136453;27;20043;-57
2021/03/16 03:59:11;;;;;;;23.40;4.65;;;5.80;99.90;;;;;;5136522;27;20130;-57
2021/03/16 04:01:37;;;;;;;24.77;3.72;;;5.70;99.90;;;;;;5136671;27;20049;-57
2021/03/16 04:04:03;;;;;;;23.58;3.40;;;5.70;99.90;;;;;;5136598;27;20043;-57
2021/03/16 04:06:30;;;;;;;25.48;3.70;;;5.70;99.90;;;;;;5136572;27;20066;-57
2021/03/16 04:08:56;;;;;;;26.88;4.35;;;5.70;99.90;;;;;;5136390;27;20084;-57
2021/03/16 04:11:24;;;;;;;26.80;3.85;;;5.60;99.90;;;;;;5136218;27;20039;-57
2021/03/16 04:13:50;;;;;;;26.38;4.47;;;5.60;99.90;;;;;;5136673;27;20465;-57
2021/03/16 04:16:18;;;;;;;44.35;4.38;;;5.70;99.90;;;;;;5136407;27;20047;-57
2021/03/16 04:18:45;;;;;;;24.48;3.60;;;5.60;99.90;;;;;;5136162;27;20487;-57
2021/03/16 04:21:13;;;;;;;32.22;4.45;;;5.60;99.90;;;;;;5135077;27;20465;-57
2021/03/16 04:23:40;;;;;;;23.38;3.42;;;5.60;99.90;;;;;;5135919;27;20071;-57
2021/03/16 04:26:05;;;;;;;26.10;3.58;;;5.60;99.90;;;;;;5136209;27;20096;-57
2021/03/16 04:28:31;;;;;;;33.00;4.38;;;5.60;99.90;;;;;;5136148;27;20126;-57
2021/03/16 04:30:57;;;;;;;17.65;4.30;;;5.50;99.90;;;;;;5136130;27;20430;-57
2021/03/16 04:33:23;;;;;;;29.90;3.72;;;5.60;99.90;;;;;;5136152;27;20385;-57
2021/03/16 04:35:49;;;;;;;24.23;3.80;;;5.50;99.90;;;;;;5136084;27;20408;-57
2021/03/16 04:38:15;;;;;;;25.58;4.25;;;5.60;99.90;;;;;;5135809;27;20046;-57
2021/03/16 04:40:41;;;;;;;25.88;3.90;;;5.60;99.90;;;;;;5135918;27;20091;-57
2021/03/16 04:43:09;;;;;;;28.95;4.18;;;5.60;99.90;;;;;;5135817;27;20043;-57
2021/03/16 04:45:35;;;;;;;27.75;3.40;;;5.60;99.90;;;;;;5135693;27;20046;-57
2021/03/16 04:48:01;;;;;;;23.73;3.42;;;5.60;99.90;;;;;;5135616;27;20047;-57
2021/03/16 04:50:27;;;;;;;21.98;3.33;;;5.50;99.90;;;;;;5135641;27;20058;-57
2021/03/16 04:52:53;;;;;;;22.90;3.42;;;5.50;99.90;;;;;;5135521;27;20393;-57
2021/03/16 04:55:19;;;;;;;20.42;3.38;;;5.50;99.90;;;;;;5135725;27;20047;-57
2021/03/16 04:57:46;;;;;;;23.65;4.53;;;5.40;99.90;;;;;;5135366;27;20126;-57
2021/03/16 05:00:12;;;;;;;25.85;2.78;;;5.40;99.90;;;;;;5135479;27;20042;-57
2021/03/16 05:02:38;;;;;;;28.23;3.50;;;5.40;99.90;;;;;;5135419;27;20043;-57
2021/03/16 05:05:05;;;;;;;24.95;3.92;;;5.40;99.90;;;;;;5135208;27;20071;-57
2021/03/16 05:07:31;;;;;;;28.25;4.68;;;5.40;99.90;;;;;;5135218;27;20084;-57
2021/03/16 05:09:56;;;;;;;15.13;2.72;;;5.40;99.90;;;;;;5133851;27;20051;-57
2021/03/16 05:12:24;;;;;;;23.08;4.18;;;5.50;99.90;;;;;;5135271;27;20039;-57
2021/03/16 05:14:49;;;;;;;32.20;4.80;;;5.40;99.90;;;;;;5135264;27;20121;-57
2021/03/16 05:17:15;;;;;;;18.95;3.55;;;5.40;99.90;;;;;;5135094;27;20051;-57
2021/03/16 05:19:41;;;;;;;18.17;3.40;;;5.40;99.90;;;;;;5134981;27;20083;-57
2021/03/16 05:22:06;;;;;;;22.83;3.40;;;5.40;99.90;;;;;;5134938;27;20055;-58
2021/03/16 05:24:32;;;;;;;22.15;3.65;;;5.40;99.90;;;;;;5135100;27;20043;-57
2021/03/16 05:26:58;;;;;;;19.50;3.17;;;5.30;99.90;;;;;;5135087;27;20057;-57
2021/03/16 05:29:24;;;;;;;30.10;4.60;;;5.30;99.90;;;;;;5134801;27;20606;-57
2021/03/16 05:31:50;;;;;;;20.88;2.97;;;5.20;99.90;;;;;;5135132;27;20043;-57
2021/03/16 05:34:16;;;;;;;21.08;3.08;;;5.30;99.90;;;;;;5134985;27;20868;-57
2021/03/16 05:36:42;;;;;;;23.38;4.40;;;5.20;99.90;;;;;;5134691;27;20074;-57
2021/03/16 05:39:08;;;;;;;21.48;3.10;;;5.20;99.90;;;;;;5134847;27;20049;-57
2021/03/16 05:41:36;;;;;;;21.10;3.53;;;5.20;99.90;;;;;;5134586;27;20114;-57
2021/03/16 05:44:03;;;;;;;21.67;3.27;;;5.20;99.90;;;;;;5134913;27;20043;-57
2021/03/16 05:46:30;;;;;;;24.92;3.38;;;5.20;99.90;;;;;;5134473;27;20453;-57
2021/03/16 05:49:02;;;;;;;17.13;2.63;;;5.20;99.90;;;;;;5134435;27;20118;-57
2021/03/16 05:51:28;;;;;;;28.25;3.15;;;5.20;99.90;;;;;;5134347;27;20043;-56
2021/03/16 05:53:54;;;;;;;20.23;3.08;;;5.20;99.90;;;;;;5134593;27;20049;-57
2021/03/16 05:56:20;;;;;;;23.25;2.92;;;5.20;99.90;;;;;;5134335;27;20043;-57
2021/03/16 05:58:47;;;;;;;23.13;3.05;;;5.10;99.90;;;;;;5133795;27;20055;-57
2021/03/16 06:01:14;;;;;;;21.48;3.20;;;5.10;99.90;;;;;;5134548;27;20535;-57
2021/03/16 06:03:42;;;;;;;17.15;2.65;;;5.10;99.90;;;;;;5134004;27;20397;-57
2021/03/16 06:06:09;;;;;;;21.88;2.60;;;5.10;99.90;;;;;;5133226;27;20039;-57
2021/03/16 06:08:37;;;;;;;18.10;2.65;;;5.10;99.90;;;;;;5132517;27;20415;-57
2021/03/16 06:11:07;;;;;;;16.25;3.00;;;5.10;99.90;;;;;;5134116;27;20039;-57
2021/03/16 06:13:35;;;;;;;18.83;2.63;;;5.20;99.90;;;;;;5134066;27;20039;-57
2021/03/16 06:16:13;;;;;;;17.08;3.55;;;5.20;99.90;;;;;;5133936;27;20048;-57
2021/03/16 06:18:43;;;;;;;20.67;3.40;;;5.20;99.90;;;;;;5133738;27;20076;-57
2021/03/16 06:21:11;;;;;;;17.25;2.53;;;5.20;99.90;;;;;;5134256;27;20528;-57
2021/03/16 06:23:38;;;;;;;16.17;3.00;;;5.30;99.90;;;;;;5134030;27;20882;-57
2021/03/16 06:26:13;;;;;;;20.88;2.88;;;5.40;99.90;;;;;;5134162;27;20166;-57
2021/03/16 06:28:39;;;;;;;20.17;2.97;;;5.50;99.90;;;;;;5133564;27;20123;-57
2021/03/16 06:31:06;;;;;;;12.95;2.08;;;5.60;99.90;;;;;;5133849;27;20477;-57
2021/03/16 06:33:32;;;;;;;18.55;2.83;;;5.70;99.90;;;;;;5133728;27;20130;-57
2021/03/16 06:36:04;;;;;;;16.85;2.38;;;5.70;99.90;;;;;;5133385;27;20066;-57
2021/03/16 06:38:31;;;;;;;23.45;2.85;;;5.80;99.90;;;;;;5133506;27;20050;-57
2021/03/16 06:41:12;;;;;;;15.32;2.50;;;5.80;99.90;;;;;;5133394;27;20035;-57
2021/03/16 06:43:39;;;;;;;24.40;3.40;;;5.80;99.90;;;;;;5133543;27;20396;-57
2021/03/16 06:46:04;;;;;;;16.08;2.53;;;5.80;99.90;;;;;;5133499;27;20043;-57
2021/03/16 06:48:37;;;;;;;19.52;2.47;;;5.90;99.90;;;;;;5133290;27;20039;-57
2021/03/16 06:51:11;;;;;;;15.68;2.30;;;5.90;99.90;;;;;;5133269;27;20046;-57
2021/03/16 06:53:37;;;;;;;20.92;2.70;;;5.80;99.90;;;;;;5133451;27;20039;-57
2021/03/16 06:56:03;;;;;;;21.75;2.80;;;5.80;99.90;;;;;;5133334;27;20062;-57
2021/03/16 06:58:32;;;;;;;22.25;2.85;;;5.70;99.90;;;;;;5132944;27;20405;-57
2021/03/16 07:01:18;;;;;;;23.42;3.13;;;5.70;99.90;;;;;;5133190;27;20069;-57
2021/03/16 07:03:45;;;;;;;27.15;3.47;;;5.70;99.90;;;;;;5133029;27;20129;-57
2021/03/16 07:06:16;;;;;;;29.17;3.78;;;5.80;99.90;;;;;;5133007;27;20035;-57
2021/03/16 07:08:44;;;;;;;16.20;2.47;;;5.70;99.90;;;;;;5132848;27;20559;-57
2021/03/16 07:11:15;;;;;;;19.83;3.05;;;5.80;99.90;;;;;;5132269;27;20039;-57
2021/03/16 07:13:41;;;;;;;20.08;3.15;;;5.80;99.90;;;;;;5133198;27;20436;-57
2021/03/16 07:16:08;;;;;;;17.02;3.00;;;5.80;99.90;;;;;;5133250;27;20365;-57
2021/03/16 07:18:36;;;;;;;23.70;3.47;;;5.90;99.90;;;;;;5133134;27;20043;-57
2021/03/16 07:21:23;;;;;;;25.17;3.30;;;6.00;99.90;;;;;;5133042;27;20047;-58
2021/03/16 07:24:09;;;;;;;10.43;2.33;;;6.10;99.90;;;;;;5131790;27;20150;-57
2021/03/16 07:26:37;;;;;;;17.20;2.30;;;6.10;99.90;;;;;;5131431;27;20058;-58
2021/03/16 07:29:05;;;;;;;22.77;3.67;;;6.50;99.90;;;;;;5132719;27;20039;-58
2021/03/16 07:31:38;;;;;;;23.45;2.92;;;6.90;99.90;;;;;;5132934;27;20039;-58
2021/03/16 07:34:06;;;;;;;21.08;3.30;;;7.10;99.90;;;;;;5132797;28;20050;-58
2021/03/16 07:36:34;;;;;;;18.35;4.43;;;7.10;99.90;;;;;;5132505;27;20112;-58
2021/03/16 07:39:01;;;;;;;19.73;3.22;;;7.00;99.90;;;;;;5132678;28;20092;-58
2021/03/16 07:41:29;;;;;;;19.90;3.13;;;6.90;99.90;;;;;;5132617;27;20043;-58
2021/03/16 07:44:05;;;;;;;15.07;3.47;;;6.80;99.90;;;;;;5132595;28;20058;-57
2021/03/16 07:46:53;;;;;;;21.77;2.90;;;7.00;99.90;;;;;;5132662;27;20043;-57
2021/03/16 07:49:40;;;;;;;16.30;2.58;;;7.30;99.90;;;;;;5132468;27;20380;-58
2021/03/16 07:52:20;;;;;;;17.30;2.65;;;7.80;99.90;;;;;;5132395;28;20100;-57
2021/03/16 07:54:48;;;;;;;23.40;2.28;;;8.20;99.90;;;;;;5132565;28;20499;-58
2021/03/16 07:57:30;;;;;;;25.83;3.23;;;8.60;99.90;;;;;;5114122;28;20035;-58
2021/03/16 08:00:07;;;;;;;15.05;2.42;;;8.90;99.90;;;;;;5132319;28;20050;-57
2021/03/16 08:02:35;;;;;;;11.65;1.90;;;8.90;99.90;;;;;;5132302;28;20043;-57
2021/03/16 08:05:01;;;;;;;14.32;2.67;;;8.90;99.90;;;;;;5132327;28;20031;-58
2021/03/16 08:07:29;;;;;;;15.15;2.38;;;8.90;99.90;;;;;;5132547;28;20043;-58
2021/03/16 08:09:57;;;;;;;15.00;1.98;;;8.80;99.90;;;;;;5132304;28;20054;-57
2021/03/16 08:12:28;;;;;;;13.98;2.75;;;9.00;99.90;;;;;;5132329;28;20100;-57
2021/03/16 08:14:55;;;;;;;16.05;2.40;;;8.70;99.90;;;;;;5132296;27;20099;-57
2021/03/16 08:17:34;;;;;;;11.95;2.60;;;8.40;99.90;;;;;;5132218;28;20056;-58
2021/03/16 08:20:02;;;;;;;19.70;3.03;;;8.10;99.90;;;;;;5132195;28;20051;-58
2021/03/16 08:22:28;;;;;;;12.73;2.65;;;7.90;99.90;;;;;;5134766;27;20048;-58
2021/03/16 08:25:03;;;;;;;21.95;2.67;;;7.80;99.90;;;;;;5135673;27;20092;-58
2021/03/16 08:27:30;;;;;;;18.17;2.13;;;7.70;99.90;;;;;;5117276;27;20134;-58
2021/03/16 08:29:56;;;;;;;12.80;2.53;;;7.70;99.90;;;;;;5135980;27;20076;-57
2021/03/16 08:32:23;;;;;;;11.32;2.35;;;7.80;99.90;;;;;;5135828;27;20043;-58
2021/03/16 08:34:50;;;;;;;16.65;3.78;;;7.80;99.90;;;;;;5135827;27;20455;-58
2021/03/16 08:37:23;;;;;;;9.30;1.90;;;8.20;99.90;;;;;;5135672;27;20081;-57
2021/03/16 08:39:50;;;;;;;8.95;1.85;;;8.50;99.90;;;;;;5135679;27;20045;-58
2021/03/16 08:42:18;;;;;;;12.13;2.28;;;8.50;99.90;;;;;;5135498;27;20487;-57
2021/03/16 08:44:44;;;;;;;8.18;1.45;;;8.50;99.90;;;;;;5135633;27;20413;-58
2021/03/16 08:47:22;;;;;;;7.40;1.40;;;8.40;99.90;;;;;;5135732;27;20054;-58
2021/03/16 08:49:50;;;;;;;15.30;2.95;;;8.70;99.90;;;;;;5135635;27;20052;-57
2021/03/16 08:52:19;;;;;;;17.40;3.00;;;9.00;99.90;;;;;;5135559;27;20066;-58
2021/03/16 08:54:45;;;;;;;14.32;2.60;;;9.30;99.90;;;;;;5135498;27;20803;-58
2021/03/16 08:57:16;;;;;;;11.48;2.17;;;9.90;99.70;;;;;;5135292;27;20039;-58
2021/03/16 08:59:46;;;;;;;12.02;2.00;;;10.20;99.60;;;;;;5135181;27;20055;-58
2021/03/16 09:02:24;;;;;;;13.00;2.33;;;10.40;97.80;;;;;;5135368;27;20126;-58
2021/03/16 09:04:49;;;;;;;9.65;1.98;;;10.50;97.10;;;;;;5135078;27;20113;-58
2021/03/16 09:07:24;;;;;;;14.60;3.40;;;10.70;96.90;;;;;;5135286;27;20118;-58
2021/03/16 09:10:10;;;;;;;7.55;1.50;;;11.00;97.40;;;;;;5135188;27;20035;-58
2021/03/16 09:12:37;;;;;;;10.48;2.22;;;11.30;97.30;;;;;;5134197;27;20477;-57
2021/03/16 09:15:12;;;;;;;14.75;2.15;;;11.10;95.40;;;;;;5135204;27;20043;-58
2021/03/16 09:17:39;;;;;;;12.82;2.35;;;10.90;95.00;;;;;;5134924;27;20509;-57
2021/03/16 09:20:15;;;;;;;10.73;1.85;;;10.90;95.60;;;;;;5135095;27;20051;-57
2021/03/16 09:22:42;;;;;;;12.40;2.08;;;10.70;96.50;;;;;;5116605;27;20047;-58
2021/03/16 09:25:09;;;;;;;11.00;1.92;;;10.60;96.20;;;;;;5116497;27;20108;-57
2021/03/16 09:27:39;;;;;;;12.75;2.30;;;10.20;96.60;;;;;;5134861;27;20472;-57
2021/03/16 09:30:07;;;;;;;14.40;2.15;;;9.90;97.60;;;;;;5134645;27;20047;-57
2021/03/16 09:32:34;;;;;;;13.38;2.60;;;9.80;98.70;;;;;;5134319;27;20057;-58
2021/03/16 09:35:00;;;;;;;15.40;3.45;;;9.70;97.40;;;;;;5134802;27;20043;-58
2021/03/16 09:37:25;;;;;;;13.15;2.60;;;9.60;98.40;;;;;;5134508;27;20046;-58
2021/03/16 09:39:52;;;;;;;12.23;2.15;;;9.90;97.40;;;;;;5134475;27;20049;-57
2021/03/16 09:42:18;;;;;;;10.57;2.00;;;10.20;97.20;;;;;;5134472;27;20063;-57
2021/03/16 09:44:45;;;;;;;14.75;2.50;;;10.50;97.40;;;;;;5134530;27;20503;-58
2021/03/16 09:47:23;;;;;;;18.08;2.85;;;10.90;96.10;;;;;;5134293;27;20545;-57
2021/03/16 09:49:48;;;;;;;8.65;1.75;;;11.00;95.60;;;;;;5134376;27;20489;-57
2021/03/16 09:52:14;;;;;;;7.03;1.60;;;10.50;93.30;;;;;;5134489;27;20115;-57
2021/03/16 09:54:46;;;;;;;12.68;2.00;;;10.50;94.80;;;;;;5134549;27;20138;-57
2021/03/16 09:57:16;;;;;;;6.15;1.60;;;10.50;95.00;;;;;;5134043;27;20046;-57
2021/03/16 09:59:44;;;;;;;8.77;1.90;;;10.60;96.30;;;;;;5133842;27;20054;-57
2021/03/16 10:02:11;;;;;;;12.80;1.75;;;10.10;95.70;;;;;;5134110;27;20404;-57
2021/03/16 10:04:47;;;;;;;11.80;2.22;;;10.10;95.10;;;;;;5134231;27;20053;-57
2021/03/16 10:07:29;;;;;;;8.48;2.83;;;10.30;96.40;;;;;;5134113;27;20039;-57
2021/03/16 10:10:13;;;;;;;14.23;2.15;;;10.60;94.70;;;;;;5133852;27;20043;-58
2021/03/16 10:13:02;;;;;;;12.10;2.28;;;10.90;95.60;;;;;;5133957;27;20447;-58
2021/03/16 10:15:30;;;;;;;10.73;1.90;;;11.00;94.20;;;;;;5134113;27;20043;-58
2021/03/16 10:18:00;;;;;;;12.75;2.30;;;11.00;93.60;;;;;;5133650;27;20047;-57
2021/03/16 10:20:31;;;;;;;11.55;1.63;;;11.00;93.40;;;;;;5133994;27;20035;-57
2021/03/16 10:23:09;;;;;;;8.52;2.08;;;11.30;93.30;;;;;;5133892;27;20035;-58
2021/03/16 10:25:36;;;;;;;9.85;2.75;;;11.60;93.50;;;;;;5133223;27;20072;-57
2021/03/16 10:28:04;;;;;;;11.68;2.40;;;11.60;91.70;;;;;;5133667;27;20100;-58
2021/03/16 10:30:44;;;;;;;12.50;2.10;;;11.40;93.10;;;;;;5133627;27;20084;-58
2021/03/16 10:33:11;;;;;;;;;;;11.30;93.00;;;;;;5134196;27;20815;-58
2021/03/16 10:35:41;;;;;;;14.52;2.47;;;11.50;93.70;;;;;;5133789;27;19919;-57
2021/03/16 10:38:08;;;;;;;16.33;2.10;;;10.90;92.30;;;;;;5133230;27;20100;-57
2021/03/16 10:40:35;;;;;;;15.93;2.15;;;10.90;93.90;;;;;;5133353;27;20043;-58
2021/03/16 10:43:03;;;;;;;7.78;1.13;;;11.00;93.40;;;;;;5133409;27;20039;-58
2021/03/16 10:45:29;;;;;;;17.05;2.33;;;11.30;92.80;;;;;;5133207;27;20035;-57
2021/03/16 10:47:55;;;;;;;6.03;1.92;;;11.40;92.30;;;;;;5133309;27;20049;-57
2021/03/16 10:50:21;;;;;;;13.30;1.65;;;11.20;92.40;;;;;;5133624;27;20051;-57
2021/03/16 10:52:47;;;;;;;15.57;2.55;;;10.90;92.90;;;;;;5133533;27;20043;-57
2021/03/16 10:55:13;;;;;;;9.57;1.67;;;10.70;93.20;;;;;;5132268;27;20047;-57
2021/03/16 10:57:39;;;;;;;8.63;2.13;;;10.90;92.70;;;;;;5132940;27;20040;-57
2021/03/16 11:00:07;;;;;;;7.93;1.42;;;10.90;93.60;;;;;;5133182;27;20126;-57
2021/03/16 11:02:33;;;;;;;12.95;1.65;;;11.20;93.60;;;;;;5133340;27;20456;-57
2021/03/16 11:04:59;;;;;;;9.18;1.70;;;11.10;92.00;;;;;;5133070;27;20084;-57
2021/03/16 11:07:25;;;;;;;12.55;1.73;;;11.30;93.00;;;;;;5132977;27;20039;-57
2021/03/16 11:09:51;;;;;;;10.07;2.00;;;11.20;91.80;;;;;;5132945;27;20047;-57
2021/03/16 11:12:17;;;;;;;12.00;1.75;;;11.30;92.40;;;;;;5132864;27;20035;-57
2021/03/16 11:14:43;;;;;;;9.95;1.88;;;11.40;92.40;;;;;;5132849;27;20043;-57
2021/03/16 11:17:09;;;;;;;6.82;1.63;;;11.50;91.50;;;;;;5132569;27;20130;-57
2021/03/16 11:19:35;;;;;;;9.00;1.63;;;11.70;94.00;;;;;;5132877;27;20123;-57
2021/03/16 11:22:00;;;;;;;13.05;2.10;;;11.20;92.10;;;;;;5132768;27;20130;-57
2021/03/16 11:24:26;;;;;;;8.80;1.90;;;11.00;93.10;;;;;;5132771;27;20046;-57
2021/03/16 11:26:52;;;;;;;13.48;2.38;;;11.10;93.10;;;;;;5132886;27;20039;-57
2021/03/16 11:29:18;;;;;;;9.77;2.28;;;10.90;92.80;;;;;;5114254;27;20043;-57
2021/03/16 11:31:44;;;;;;;13.05;2.28;;;10.60;94.60;;;;;;5132674;27;20046;-57
2021/03/16 11:34:09;;;;;;;8.48;1.90;;;10.30;94.90;;;;;;5132234;28;20070;-57
2021/03/16 11:36:35;;;;;;;11.50;2.58;;;10.70;94.30;;;;;;5132573;28;20086;-57
2021/03/16 11:39:01;;;;;;;12.07;2.38;;;10.80;95.10;;;;;;5132579;28;20095;-58
2021/03/16 11:41:27;;;;;;;12.10;3.15;;;11.00;93.00;;;;;;5132769;28;20039;-57
2021/03/16 11:43:52;;;;;;;13.57;2.95;;;10.90;91.60;;;;;;5132686;28;20511;-57
2021/03/16 11:46:18;;;;;;;12.48;3.65;;;11.00;92.30;;;;;;5132888;28;20158;-57
2021/03/16 11:48:44;;;;;;;9.98;2.60;;;11.00;90.80;;;;;;5132738;28;20043;-57
2021/03/16 11:51:10;;;;;;;12.50;3.22;;;10.70;90.80;;;;;;5132338;28;20042;-57
2021/03/16 11:53:36;;;;;;;10.55;2.70;;;11.00;91.00;;;;;;5132577;28;20043;-57
2021/03/16 11:56:01;;;;;;;15.85;3.58;;;11.40;91.20;;;;;;5132664;27;20108;-57
2021/03/16 11:58:27;;;;;;;21.90;2.65;;;11.20;92.70;;;;;;5136441;27;20480;-58
2021/03/16 12:00:53;;;;;;;8.70;1.92;;;11.30;92.20;;;;;;5136676;27;20050;-58
2021/03/16 12:03:19;;;;;;;9.75;1.77;;;11.50;92.70;;;;;;5136398;27;20035;-57
2021/03/16 12:05:45;;;;;;;7.95;1.60;;;11.90;91.20;;;;;;5136206;27;20054;-58
2021/03/16 12:08:11;;;;;;;11.68;1.92;;;11.90;90.80;;;;;;5136312;27;20498;-57
2021/03/16 12:10:37;;;;;;;9.40;1.90;;;11.90;91.40;;;;;;5136250;27;20485;-57
2021/03/16 12:13:02;;;;;;;7.88;1.25;;;11.40;90.80;;;;;;5136278;27;20045;-57
2021/03/16 12:15:28;;;;;;;16.58;2.55;;;11.30;90.50;;;;;;5136173;27;20039;-57
2021/03/16 12:17:54;;;;;;;10.88;1.75;;;11.70;91.70;;;;;;5135909;27;20122;-57
2021/03/16 12:20:20;;;;;;;12.00;1.77;;;11.90;90.60;;;;;;5136104;27;20062;-57
2021/03/16 12:22:46;;;;;;;14.57;2.22;;;11.90;91.90;;;;;;5136095;27;20486;-57
2021/03/16 12:25:12;;;;;;;9.25;1.70;;;11.90;92.10;;;;;;5135795;27;20127;-58
2021/03/16 12:27:39;;;;;;;7.25;1.60;;;12.00;91.50;;;;;;5136117;27;20075;-57
2021/03/16 12:30:07;;;;;;;8.27;1.70;;;11.80;90.20;;;;;;5136197;27;20063;-57
2021/03/16 12:32:38;;;;;;;9.07;2.20;;;11.90;91.20;;;;;;5134655;27;20047;-58
2021/03/16 12:35:05;;;;;;;6.47;1.77;;;12.00;90.90;;;;;;5134722;27;20104;-57
2021/03/16 12:37:31;;;;;;;10.93;2.00;;;12.20;90.80;;;;;;5135691;27;20031;-57
2021/03/16 12:39:57;;;;;;;7.88;2.05;;;12.40;90.70;;;;;;5135973;27;20092;-57
2021/03/16 12:42:23;;;;;;;10.32;1.50;;;12.40;88.90;;;;;;5135753;27;20370;-58
2021/03/16 12:44:48;;;;;;;9.75;1.95;;;12.30;90.00;;;;;;5135877;27;20055;-58
2021/03/16 12:47:14;;;;;;;8.57;2.03;;;11.70;89.50;;;;;;5135814;27;20055;-57
2021/03/16 12:49:40;;;;;;;10.98;2.00;;;11.60;91.50;;;;;;5135976;27;20893;-57
2021/03/16 12:52:05;;;;;;;5.10;1.40;;;11.60;91.10;;;;;;5135578;27;20491;-57